TimeEST,TemperatureF,Dew PointF,Humidity,Sea Level PressureIn,VisibilityMPH,Wind Direction,Wind SpeedMPH,Gust SpeedMPH,PrecipitationIn,Events,Conditions,WindDirDegrees,DateUTC
12:00 AM,48.0,46.9,96,29.98,3.0,West,4.6,-,0.01,Rain,Light Rain,260,2013-01-16 05:00:00
12:08 AM,46.9,46.0,97,29.98,2.5,WNW,4.6,-,0.03,Rain,Heavy Rain,290,2013-01-16 05:08:00
12:20 AM,48.0,46.9,96,29.99,3.0,Calm,Calm,-,0.05,Rain,Rain,0,2013-01-16 05:20:00
12:53 AM,46.9,46.9,100,29.96,3.0,Calm,Calm,-,0.14,Rain,Rain,0,2013-01-16 05:53:00
1:04 AM,48.0,46.9,96,29.98,7.0,SSE,4.6,-,0.00,Rain,Light Rain,160,2013-01-16 06:04:00
1:13 AM,48.0,46.9,96,29.98,8.0,Calm,Calm,-,0.00,Rain,Light Rain,0,2013-01-16 06:13:00
1:53 AM,48.0,46.9,96,29.94,4.0,Calm,Calm,-,0.02,Rain,Light Rain,0,2013-01-16 06:53:00
2:53 AM,48.0,48.0,100,29.92,3.0,Calm,Calm,-,0.03,Rain,Rain,0,2013-01-16 07:53:00
3:53 AM,48.9,48.0,97,29.91,7.0,East,3.5,-,0.08,Rain,Light Rain,80,2013-01-16 08:53:00
4:24 AM,48.9,48.0,97,29.92,10.0,ENE,4.6,-,0.01,,Overcast,70,2013-01-16 09:24:00
4:53 AM,48.9,48.0,97,29.88,10.0,East,5.8,-,0.01,,Overcast,80,2013-01-16 09:53:00
5:53 AM,48.9,48.0,97,29.87,10.0,Calm,Calm,-,N/A,,Overcast,0,2013-01-16 10:53:00
6:10 AM,48.9,48.0,97,29.92,4.0,NW,10.4,-,0.02,Rain,Rain,310,2013-01-16 11:10:00
6:23 AM,50.0,48.0,93,29.92,4.0,NW,12.7,20.7,0.05,Rain,Rain,320,2013-01-16 11:23:00
6:53 AM,50.0,48.9,96,29.91,4.0,Calm,Calm,-,0.15,Rain,Rain,0,2013-01-16 11:53:00
7:24 AM,48.9,48.9,100,29.96,2.5,Calm,Calm,-,0.13,Rain,Heavy Rain,0,2013-01-16 12:24:00
7:53 AM,48.9,48.0,97,29.96,2.0,WNW,4.6,-,0.29,Rain,Heavy Rain,300,2013-01-16 12:53:00
8:42 AM,50.0,48.9,96,30.03,1.0,SW,4.6,-,0.16,Rain,Heavy Rain,230,2013-01-16 13:42:00
8:53 AM,50.0,48.9,96,30.02,1.0,West,4.6,-,0.22,Rain,Rain,260,2013-01-16 13:53:00
9:41 AM,50.0,48.9,96,30.01,2.0,SSE,4.6,-,0.04,Rain,Light Rain,160,2013-01-16 14:41:00
9:49 AM,50.0,48.2,94,30.01,2.0,SSE,5.8,-,0.04,Rain,Light Rain,150,2013-01-16 14:49:00
9:53 AM,50.0,48.9,96,29.97,2.0,ESE,4.6,-,0.04,Rain,Light Rain,120,2013-01-16 14:53:00
10:10 AM,51.1,50.0,96,30.01,2.0,SSE,4.6,-,0.00,,Overcast,160,2013-01-16 15:10:00
10:48 AM,51.8,50.0,94,29.99,3.0,NW,3.5,-,0.00,,Overcast,320,2013-01-16 15:48:00
10:53 AM,52.0,50.0,93,29.95,3.0,Calm,Calm,-,0.00,,Overcast,0,2013-01-16 15:53:00
11:53 AM,53.1,51.1,93,29.92,10.0,NNW,4.6,-,N/A,,Overcast,340,2013-01-16 16:53:00
12:53 PM,53.1,51.1,93,29.93,10.0,NW,12.7,-,N/A,,Overcast,310,2013-01-16 17:53:00
1:00 PM,52.0,50.0,93,29.96,10.0,NW,10.4,-,N/A,,Overcast,310,2013-01-16 18:00:00
1:53 PM,52.0,50.0,93,29.95,10.0,WSW,6.9,-,N/A,,Overcast,240,2013-01-16 18:53:00
2:42 PM,52.0,48.9,89,29.97,9.0,SSW,4.6,-,0.00,Rain,Light Rain,210,2013-01-16 19:42:00
2:51 PM,51.8,50.0,94,29.97,7.0,South,3.5,-,0.01,Rain,Light Rain,170,2013-01-16 19:51:00
2:53 PM,52.0,50.0,93,29.94,7.0,South,3.5,-,0.01,Rain,Light Rain,170,2013-01-16 19:53:00
3:53 PM,52.0,48.9,89,29.94,10.0,SW,6.9,-,0.01,Rain,Light Rain,230,2013-01-16 20:53:00
4:29 PM,51.1,48.9,92,29.98,10.0,West,6.9,-,0.00,,Overcast,280,2013-01-16 21:29:00
4:53 PM,52.0,48.9,89,29.96,10.0,Variable,4.6,-,0.00,,Overcast,0,2013-01-16 21:53:00
5:53 PM,50.0,48.0,93,29.97,10.0,NW,6.9,-,0.00,,Overcast,320,2013-01-16 22:53:00
6:51 PM,48.2,46.4,93,30.05,10.0,West,9.2,-,0.00,Rain,Light Rain,280,2013-01-16 23:51:00
6:53 PM,48.9,46.9,93,30.02,9.0,West,8.1,-,0.00,Rain,Light Rain,280,2013-01-16 23:53:00
7:16 PM,48.9,46.9,93,30.04,10.0,WNW,6.9,-,0.02,Rain,Light Rain,290,2013-01-17 00:16:00
7:53 PM,48.0,46.0,93,29.99,10.0,WSW,4.6,-,0.02,,Overcast,250,2013-01-17 00:53:00
8:53 PM,46.9,45.0,93,30.00,10.0,North,3.5,-,0.02,,Overcast,360,2013-01-17 01:53:00
9:45 PM,46.9,45.0,93,30.05,10.0,West,5.8,-,0.00,Rain,Light Rain,280,2013-01-17 02:45:00
9:53 PM,46.9,45.0,93,30.01,10.0,WNW,5.8,-,0.00,Rain,Light Rain,300,2013-01-17 02:53:00
10:03 PM,46.0,45.0,96,30.02,10.0,NNW,4.6,-,0.00,Rain,Light Rain,340,2013-01-17 03:03:00
10:53 PM,46.0,44.1,93,30.01,9.0,NW,4.6,-,0.01,Rain,Light Rain,310,2013-01-17 03:53:00
11:01 PM,46.0,44.1,93,30.04,10.0,NW,5.8,-,0.00,Rain,Light Rain,320,2013-01-17 04:01:00
11:53 PM,45.0,44.1,97,29.99,10.0,Calm,Calm,-,0.00,,Overcast,0,2013-01-17 04:53:00